Time;durP1;ratioP1;P1;durP2;ratioP2;P2;SDS_P1;SDS_P2;PMS_P1;PMS_P2;Temp;Humidity;BMP_temperature;BMP_pressure;BME280_temperature;BME280_humidity;BME280_pressure;Samples;Min_cycle;Max_cycle;Signal;HPM_P1;HPM_P2
2023/06/07 00:01:33;;;;;;;8.57;4.90;;;16.00;99.90;;;;;;5108187;28;20034;-62
2023/06/07 00:04:02;;;;;;;11.50;5.00;;;15.90;99.90;;;;;;5110261;28;20030;-62
2023/06/07 00:06:28;;;;;;;9.85;5.15;;;15.90;99.90;;;;;;5110237;28;20024;-62
2023/06/07 00:08:54;;;;;;;7.28;4.88;;;15.80;99.90;;;;;;5108920;28;20018;-63
2023/06/07 00:11:21;;;;;;;10.55;4.78;;;15.90;99.90;;;;;;5105967;28;20020;-63
2023/06/07 00:13:48;;;;;;;8.15;5.25;;;15.80;99.90;;;;;;5109703;28;20074;-63
2023/06/07 00:16:13;;;;;;;14.30;5.40;;;15.70;99.90;;;;;;5106640;28;20557;-62
2023/06/07 00:18:40;;;;;;;8.05;4.50;;;15.70;99.90;;;;;;5106785;28;20099;-63
2023/06/07 00:21:07;;;;;;;7.72;4.80;;;15.70;99.90;;;;;;5108900;28;20036;-63
2023/06/07 00:23:35;;;;;;;9.02;4.85;;;15.70;99.90;;;;;;5110216;28;20032;-63
2023/06/07 00:26:01;;;;;;;11.70;5.55;;;15.60;99.90;;;;;;5110579;28;20023;-63
2023/06/07 00:28:26;;;;;;;8.65;5.22;;;15.70;99.90;;;;;;5109103;28;20027;-63
2023/06/07 00:30:52;;;;;;;10.88;4.70;;;15.70;99.90;;;;;;5107726;28;20070;-63
2023/06/07 00:33:19;;;;;;;11.07;4.93;;;15.70;99.90;;;;;;5106236;28;20500;-63
2023/06/07 00:35:44;;;;;;;7.30;4.60;;;15.70;99.90;;;;;;5107773;28;20131;-63
2023/06/07 00:38:10;;;;;;;7.45;4.82;;;15.70;99.90;;;;;;5109335;28;20098;-63
2023/06/07 00:40:35;;;;;;;10.35;5.43;;;15.80;99.90;;;;;;5110848;28;20032;-63
2023/06/07 00:43:01;;;;;;;9.10;4.90;;;15.80;99.90;;;;;;5105126;28;20034;-62
2023/06/07 00:45:26;;;;;;;9.45;4.82;;;15.70;99.90;;;;;;5112353;28;20455;-63
2023/06/07 00:47:52;;;;;;;6.07;4.13;;;15.80;99.90;;;;;;5112584;28;20704;-62
2023/06/07 00:50:18;;;;;;;10.88;4.75;;;15.90;99.90;;;;;;5114456;28;20470;-63
2023/06/07 00:52:44;;;;;;;9.85;4.75;;;15.90;99.90;;;;;;5111498;28;20114;-62
2023/06/07 00:55:12;;;;;;;11.07;4.80;;;16.00;99.90;;;;;;5114818;28;20366;-63
2023/06/07 00:57:38;;;;;;;7.28;4.85;;;16.00;99.90;;;;;;5112036;28;20023;-63
2023/06/07 01:00:10;;;;;;;12.10;5.13;;;16.00;99.90;;;;;;5112426;28;20511;-61
2023/06/07 01:02:35;;;;;;;6.20;4.47;;;16.00;99.90;;;;;;5111877;28;20034;-61
2023/06/07 01:05:02;;;;;;;8.20;4.68;;;16.00;99.90;;;;;;5114039;28;20027;-62
2023/06/07 01:07:27;;;;;;;8.90;4.93;;;16.00;99.90;;;;;;5112448;28;20099;-63
2023/06/07 01:09:53;;;;;;;11.48;5.90;;;15.90;99.90;;;;;;5112049;28;20053;-62
2023/06/07 01:12:19;;;;;;;10.20;5.50;;;15.90;99.90;;;;;;5112930;28;20076;-62
2023/06/07 01:14:47;;;;;;;8.25;4.97;;;15.90;99.90;;;;;;5113021;28;20020;-63
2023/06/07 01:17:14;;;;;;;7.97;4.75;;;16.00;99.90;;;;;;5112247;28;20031;-63
2023/06/07 01:19:42;;;;;;;9.85;5.07;;;16.00;99.90;;;;;;5109292;28;20027;-63
2023/06/07 01:22:10;;;;;;;12.13;4.63;;;16.10;99.90;;;;;;5114314;28;20106;-63
2023/06/07 01:24:37;;;;;;;7.47;4.97;;;16.20;99.90;;;;;;5113178;28;20062;-63
2023/06/07 01:27:07;;;;;;;8.65;4.57;;;16.30;99.90;;;;;;5112027;28;20019;-62
2023/06/07 01:29:33;;;;;;;12.02;4.90;;;16.40;99.90;;;;;;5110884;28;20133;-62
2023/06/07 01:32:04;;;;;;;9.18;4.80;;;16.50;99.90;;;;;;5106750;27;20091;-63
2023/06/07 01:34:31;;;;;;;9.50;4.68;;;16.60;99.90;;;;;;5106181;28;20198;-63
2023/06/07 01:36:57;;;;;;;10.13;4.82;;;16.80;99.90;;;;;;5109397;28;20032;-63
2023/06/07 01:39:24;;;;;;;9.82;4.32;;;16.70;99.90;;;;;;5111724;28;20405;-63
2023/06/07 01:41:51;;;;;;;10.80;4.80;;;16.60;99.90;;;;;;5110736;28;20035;-62
2023/06/07 01:44:18;;;;;;;11.75;5.00;;;16.50;99.90;;;;;;5110146;28;20080;-62
2023/06/07 01:46:44;;;;;;;6.97;4.38;;;16.40;99.90;;;;;;5109573;28;20073;-62
2023/06/07 01:49:10;;;;;;;11.43;5.30;;;16.40;99.90;;;;;;5106367;28;20047;-62
2023/06/07 01:51:36;;;;;;;11.30;5.00;;;16.40;99.90;;;;;;5112354;27;20058;-63
2023/06/07 01:54:03;;;;;;;8.45;5.25;;;16.50;99.90;;;;;;5111204;28;20047;-63
2023/06/07 01:56:39;;;;;;;8.68;4.93;;;16.40;99.90;;;;;;5109999;28;20019;-63
2023/06/07 01:59:14;;;;;;;12.45;5.47;;;16.40;99.90;;;;;;5104684;27;20031;-63
2023/06/07 02:01:57;;;;;;;9.68;4.90;;;16.40;99.90;;;;;;5109039;27;20104;-63
2023/06/07 02:04:26;;;;;;;9.82;5.22;;;16.40;99.90;;;;;;5111243;28;20036;-62
2023/06/07 02:06:54;;;;;;;8.13;5.05;;;16.50;99.90;;;;;;5111427;28;20020;-63
2023/06/07 02:09:23;;;;;;;14.43;6.07;;;16.50;99.90;;;;;;5111421;28;20042;-62
2023/06/07 02:11:50;;;;;;;8.27;5.00;;;16.40;99.90;;;;;;5101408;28;20093;-62
2023/06/07 02:14:17;;;;;;;11.88;5.07;;;16.40;99.90;;;;;;5107519;27;20059;-62
2023/06/07 02:16:43;;;;;;;10.20;5.47;;;16.30;99.90;;;;;;5110808;28;20027;-63
2023/06/07 02:19:09;;;;;;;9.75;5.00;;;16.30;99.90;;;;;;5106910;28;20020;-62
2023/06/07 02:21:36;;;;;;;8.57;5.47;;;16.40;99.90;;;;;;5105535;28;20134;-60
2023/06/07 02:24:03;;;;;;;7.90;4.85;;;16.30;99.90;;;;;;5107280;28;20051;-63
2023/06/07 02:26:28;;;;;;;9.27;5.22;;;16.40;99.90;;;;;;5107539;28;20019;-61
2023/06/07 02:28:54;;;;;;;13.73;5.35;;;16.40;99.90;;;;;;5107585;28;20020;-63
2023/06/07 02:31:20;;;;;;;7.80;5.53;;;16.30;99.90;;;;;;5106053;28;20095;-63
2023/06/07 02:33:49;;;;;;;8.63;5.72;;;16.40;99.90;;;;;;5109936;28;20051;-63
2023/06/07 02:36:15;;;;;;;8.95;5.90;;;16.30;99.90;;;;;;5109026;28;20032;-62
2023/06/07 02:38:41;;;;;;;7.25;5.20;;;16.30;99.90;;;;;;5106467;28;20640;-63
2023/06/07 02:41:06;;;;;;;11.00;5.28;;;16.30;99.90;;;;;;5107599;28;20034;-63
2023/06/07 02:43:32;;;;;;;11.48;5.97;;;16.40;99.90;;;;;;5107893;28;20020;-63
2023/06/07 02:45:57;;;;;;;9.10;5.05;;;16.40;99.90;;;;;;5109491;28;20034;-63
2023/06/07 02:48:23;;;;;;;12.02;5.18;;;16.30;99.90;;;;;;5105146;28;20038;-63
2023/06/07 02:50:49;;;;;;;7.18;5.45;;;16.40;99.90;;;;;;5108994;28;20035;-63
2023/06/07 02:53:15;;;;;;;10.90;5.35;;;16.40;99.90;;;;;;5108961;28;20068;-62
2023/06/07 02:55:40;;;;;;;10.40;5.30;;;16.40;99.90;;;;;;5109772;28;20106;-62
2023/06/07 02:58:06;;;;;;;10.70;5.90;;;16.50;99.90;;;;;;5109313;28;20085;-63
2023/06/07 03:00:32;;;;;;;10.13;6.10;;;16.60;99.90;;;;;;5103206;28;20032;-62
2023/06/07 03:02:58;;;;;;;10.50;5.63;;;16.60;99.90;;;;;;5108887;28;20016;-63
2023/06/07 03:05:26;;;;;;;9.10;6.03;;;16.70;99.90;;;;;;5110481;28;20055;-62
2023/06/07 03:07:52;;;;;;;11.30;6.05;;;16.70;99.90;;;;;;5108768;28;20020;-61
2023/06/07 03:10:18;;;;;;;11.48;5.85;;;16.80;99.90;;;;;;5111722;28;20023;-62
2023/06/07 03:12:43;;;;;;;18.77;7.35;;;16.90;99.90;;;;;;5110489;28;20023;-62
2023/06/07 03:15:09;;;;;;;12.57;6.68;;;17.00;99.90;;;;;;5108288;28;20089;-62
2023/06/07 03:17:36;;;;;;;15.25;7.18;;;17.10;99.90;;;;;;5111436;27;20689;-62
2023/06/07 03:20:04;;;;;;;9.90;6.47;;;17.20;99.90;;;;;;5108644;28;20024;-64
2023/06/07 03:22:30;;;;;;;12.05;6.63;;;17.30;99.90;;;;;;5109234;28;20019;-62
2023/06/07 03:24:57;;;;;;;13.82;6.97;;;17.40;99.90;;;;;;5110663;28;20043;-64
2023/06/07 03:27:23;;;;;;;11.90;7.05;;;17.50;99.90;;;;;;5110268;28;20496;-59
2023/06/07 03:29:50;;;;;;;10.05;6.63;;;17.50;99.90;;;;;;5106869;28;20027;-63
2023/06/07 03:32:15;;;;;;;10.80;7.10;;;17.50;99.90;;;;;;5108596;28;20019;-63
2023/06/07 03:34:42;;;;;;;11.50;6.30;;;17.60;99.90;;;;;;5110547;28;20928;-63
2023/06/07 03:37:08;;;;;;;17.17;7.10;;;17.60;99.90;;;;;;5108574;28;20028;-63
2023/06/07 03:39:36;;;;;;;10.88;6.32;;;17.60;99.90;;;;;;5110937;27;20034;-63
2023/06/07 03:42:01;;;;;;;12.57;6.60;;;17.60;99.90;;;;;;5109115;28;20024;-63
2023/06/07 03:44:27;;;;;;;12.50;6.68;;;17.60;99.90;;;;;;5105264;28;20143;-61
2023/06/07 03:46:52;;;;;;;15.48;7.50;;;17.70;99.90;;;;;;5102782;28;20085;-63
2023/06/07 03:49:18;;;;;;;11.57;6.90;;;17.70;99.90;;;;;;5109254;28;20122;-62
2023/06/07 03:51:43;;;;;;;13.13;6.72;;;17.70;99.90;;;;;;5109029;28;20028;-62
2023/06/07 03:54:10;;;;;;;14.95;7.35;;;17.70;99.90;;;;;;5108493;28;20050;-61
2023/06/07 03:56:35;;;;;;;12.30;7.00;;;17.70;99.90;;;;;;5107522;28;20038;-63
2023/06/07 03:59:01;;;;;;;15.20;6.70;;;17.70;99.90;;;;;;5105404;28;20024;-62
2023/06/07 04:01:27;;;;;;;13.55;7.15;;;17.70;99.90;;;;;;5106400;28;20147;-63
2023/06/07 04:03:53;;;;;;;11.88;6.72;;;17.70;99.90;;;;;;5110176;28;20481;-62
2023/06/07 04:06:20;;;;;;;13.65;7.28;;;17.70;99.90;;;;;;5108173;28;20107;-62
2023/06/07 04:08:47;;;;;;;10.95;7.22;;;17.80;99.90;;;;;;5109729;28;20103;-63
2023/06/07 04:11:13;;;;;;;16.67;8.23;;;17.80;99.90;;;;;;5108811;28;20595;-63
2023/06/07 04:13:41;;;;;;;14.55;7.63;;;17.80;99.90;;;;;;5103103;28;20112;-56
2023/06/07 04:16:07;;;;;;;15.48;6.85;;;17.80;99.90;;;;;;5106539;28;20093;-61
2023/06/07 04:18:32;;;;;;;15.68;7.93;;;17.80;99.90;;;;;;5104709;28;20027;-62
2023/06/07 04:20:58;;;;;;;17.80;7.18;;;17.80;99.90;;;;;;5110174;28;20107;-63
2023/06/07 04:23:23;;;;;;;15.63;8.00;;;17.80;99.90;;;;;;5109248;28;20421;-63
2023/06/07 04:25:49;;;;;;;15.82;7.70;;;17.80;99.90;;;;;;5107126;28;20035;-63
2023/06/07 04:28:15;;;;;;;20.42;7.60;;;17.80;99.90;;;;;;5099228;28;20047;-62
2023/06/07 04:30:42;;;;;;;15.45;7.63;;;17.80;99.90;;;;;;5107984;28;20043;-62
2023/06/07 04:33:13;;;;;;;13.38;8.07;;;17.80;99.90;;;;;;5106074;28;20079;-63
2023/06/07 04:35:44;;;;;;;16.70;6.90;;;17.80;99.90;;;;;;5107609;28;20401;-62
2023/06/07 04:38:11;;;;;;;16.08;7.18;;;17.80;99.90;;;;;;5110325;28;20035;-63
2023/06/07 04:40:41;;;;;;;18.50;7.35;;;17.80;99.90;;;;;;5104129;28;20020;-63
2023/06/07 04:43:08;;;;;;;14.02;7.70;;;17.90;99.90;;;;;;5102228;28;20035;-62
2023/06/07 04:45:40;;;;;;;13.38;7.78;;;17.90;99.90;;;;;;5108717;28;20034;-63
2023/06/07 04:48:07;;;;;;;16.35;7.93;;;17.90;99.90;;;;;;5103713;28;20023;-63
2023/06/07 04:50:35;;;;;;;17.35;7.80;;;17.90;99.90;;;;;;5107738;28;20050;-63
2023/06/07 04:53:03;;;;;;;17.95;8.45;;;17.90;99.90;;;;;;5100563;28;20427;-62
2023/06/07 04:55:34;;;;;;;16.00;9.00;;;17.90;99.90;;;;;;5107679;28;20019;-61
2023/06/07 04:58:04;;;;;;;20.98;7.90;;;17.80;99.90;;;;;;5104709;28;20020;-62
2023/06/07 05:00:31;;;;;;;15.90;7.13;;;17.80;99.90;;;;;;5106174;28;20016;-63
2023/06/07 05:02:58;;;;;;;19.20;8.60;;;17.80;99.90;;;;;;5107039;28;20059;-63
2023/06/07 05:05:24;;;;;;;17.65;8.77;;;17.90;99.90;;;;;;5106089;28;20020;-62
2023/06/07 05:07:49;;;;;;;17.35;8.75;;;17.90;99.90;;;;;;5100880;28;20509;-62
2023/06/07 05:10:18;;;;;;;16.95;8.52;;;17.90;99.90;;;;;;5110375;28;20020;-63
2023/06/07 05:12:44;;;;;;;23.73;8.15;;;17.90;99.90;;;;;;5103191;28;20035;-63
2023/06/07 05:15:10;;;;;;;16.38;8.25;;;17.90;99.90;;;;;;5105215;28;20210;-63
2023/06/07 05:17:38;;;;;;;15.18;7.95;;;18.00;99.90;;;;;;5108755;28;20569;-63
2023/06/07 05:20:10;;;;;;;19.58;8.68;;;18.00;99.90;;;;;;5107742;28;20397;-62
2023/06/07 05:22:41;;;;;;;15.60;7.88;;;18.00;99.90;;;;;;5102927;28;20039;-59
2023/06/07 05:25:08;;;;;;;15.13;7.03;;;18.00;99.90;;;;;;5102520;28;20084;-62
2023/06/07 05:27:36;;;;;;;16.52;8.68;;;18.00;99.90;;;;;;5105194;28;20020;-62
2023/06/07 05:30:03;;;;;;;16.38;8.00;;;17.90;99.90;;;;;;5106775;28;20092;-61
2023/06/07 05:32:29;;;;;;;21.42;8.57;;;18.00;99.90;;;;;;5110235;28;20055;-63
2023/06/07 05:34:56;;;;;;;17.13;8.57;;;17.90;99.90;;;;;;5100518;28;20112;-63
2023/06/07 05:37:21;;;;;;;15.23;7.97;;;18.00;99.90;;;;;;5110310;28;20109;-63
2023/06/07 05:39:47;;;;;;;13.45;7.60;;;18.00;99.90;;;;;;5111842;28;20491;-63
2023/06/07 05:42:12;;;;;;;20.50;7.97;;;18.00;99.90;;;;;;5111463;28;20435;-63
2023/06/07 05:44:39;;;;;;;19.23;7.63;;;18.10;99.90;;;;;;5109215;28;20188;-64
2023/06/07 05:47:05;;;;;;;17.58;8.32;;;18.10;99.90;;;;;;5109506;28;20088;-63
2023/06/07 05:49:31;;;;;;;19.83;7.72;;;18.00;99.90;;;;;;5107712;28;20070;-63
2023/06/07 05:51:56;;;;;;;17.13;8.10;;;18.00;99.90;;;;;;5107412;28;20019;-63
2023/06/07 05:54:23;;;;;;;21.48;8.70;;;18.00;99.90;;;;;;5110350;28;20027;-62
2023/06/07 05:56:49;;;;;;;20.73;8.80;;;18.00;99.90;;;;;;5108097;28;20097;-62
2023/06/07 05:59:14;;;;;;;20.63;8.07;;;18.00;99.90;;;;;;5107120;28;20023;-63
2023/06/07 06:01:40;;;;;;;19.30;7.75;;;17.90;99.90;;;;;;5110879;28;20024;-63
2023/06/07 06:04:06;;;;;;;25.48;8.02;;;17.90;99.90;;;;;;5112926;28;20459;-63
2023/06/07 06:06:31;;;;;;;17.48;8.23;;;17.90;99.90;;;;;;5112259;28;20023;-63
2023/06/07 06:08:57;;;;;;;16.95;8.10;;;17.90;99.90;;;;;;5109381;28;20055;-63
2023/06/07 06:11:22;;;;;;;17.60;8.23;;;17.90;99.90;;;;;;5113507;28;20081;-63
2023/06/07 06:13:48;;;;;;;21.88;7.88;;;18.00;99.90;;;;;;5111384;28;20034;-63
2023/06/07 06:16:14;;;;;;;26.65;8.10;;;18.00;99.90;;;;;;5107975;28;20051;-61
2023/06/07 06:18:41;;;;;;;20.85;8.85;;;17.90;99.90;;;;;;5106989;28;20062;-63
2023/06/07 06:21:08;;;;;;;15.32;8.18;;;17.90;99.90;;;;;;5111999;28;20028;-61
2023/06/07 06:23:34;;;;;;;18.35;8.05;;;17.90;99.90;;;;;;5109207;28;20027;-59
2023/06/07 06:26:00;;;;;;;24.30;9.23;;;18.00;99.90;;;;;;5111631;28;20019;-60
2023/06/07 06:28:26;;;;;;;18.45;8.55;;;18.00;99.90;;;;;;5110125;28;20020;-60
2023/06/07 06:30:52;;;;;;;17.90;7.90;;;18.10;99.90;;;;;;5111490;28;20034;-60
2023/06/07 06:33:17;;;;;;;18.80;7.90;;;18.10;99.90;;;;;;5110394;28;20028;-61
2023/06/07 06:35:43;;;;;;;22.75;8.25;;;18.10;99.90;;;;;;5109818;28;20119;-61
2023/06/07 06:38:08;;;;;;;18.40;7.78;;;18.20;99.90;;;;;;5106003;28;20420;-60
2023/06/07 06:40:34;;;;;;;13.00;7.43;;;18.20;99.90;;;;;;5108038;28;20071;-59
2023/06/07 06:43:00;;;;;;;22.52;7.57;;;18.20;99.90;;;;;;5106092;28;20082;-61
2023/06/07 06:45:26;;;;;;;18.00;7.95;;;18.20;99.90;;;;;;5106501;28;20020;-61
2023/06/07 06:47:51;;;;;;;18.35;8.32;;;18.20;99.90;;;;;;5104622;28;20035;-60
2023/06/07 06:50:17;;;;;;;17.05;7.95;;;18.30;99.90;;;;;;5104434;28;20059;-61
2023/06/07 06:52:43;;;;;;;18.88;7.82;;;18.30;99.90;;;;;;5111114;28;20027;-58
2023/06/07 06:55:08;;;;;;;27.50;8.85;;;18.30;99.90;;;;;;5111253;28;20085;-61
2023/06/07 06:57:35;;;;;;;12.88;6.95;;;18.40;99.90;;;;;;5108577;28;20036;-61
2023/06/07 07:00:04;;;;;;;19.23;7.82;;;18.40;99.90;;;;;;5108728;28;20476;-60
2023/06/07 07:02:30;;;;;;;17.17;7.57;;;18.40;99.90;;;;;;5109366;28;20032;-60
2023/06/07 07:04:55;;;;;;;19.88;7.90;;;18.40;99.90;;;;;;5108773;28;20077;-61
2023/06/07 07:07:21;;;;;;;17.48;8.02;;;18.50;99.90;;;;;;5108377;28;20072;-60
2023/06/07 07:09:46;;;;;;;19.55;8.07;;;18.50;99.90;;;;;;5105891;28;20028;-59
2023/06/07 07:12:12;;;;;;;25.38;7.75;;;18.50;99.90;;;;;;5108180;28;20031;-62
2023/06/07 07:14:37;;;;;;;22.38;8.00;;;18.50;99.90;;;;;;5110184;28;20035;-59
2023/06/07 07:17:03;;;;;;;22.58;8.65;;;18.60;99.90;;;;;;5111784;28;20478;-58
2023/06/07 07:19:29;;;;;;;16.65;7.80;;;18.50;99.90;;;;;;5105791;28;20043;-57
2023/06/07 07:21:54;;;;;;;20.23;7.85;;;18.50;99.90;;;;;;5106172;28;20030;-57
2023/06/07 07:24:20;;;;;;;19.33;7.97;;;18.40;99.90;;;;;;5106470;28;20073;-60
2023/06/07 07:26:52;;;;;;;19.65;8.32;;;18.40;99.90;;;;;;5110176;28;20482;-60
2023/06/07 07:29:17;;;;;;;16.80;7.57;;;18.50;99.90;;;;;;5108237;28;20493;-58
2023/06/07 07:31:43;;;;;;;16.65;8.00;;;18.40;99.90;;;;;;5108354;28;20088;-58
2023/06/07 07:34:10;;;;;;;25.35;8.50;;;18.40;99.90;;;;;;5109271;28;20165;-59
2023/06/07 07:36:37;;;;;;;20.00;7.68;;;18.40;99.90;;;;;;5111113;28;20062;-61
2023/06/07 07:39:06;;;;;;;18.33;7.40;;;18.40;99.90;;;;;;5109260;28;20039;-60
2023/06/07 07:41:32;;;;;;;14.20;5.97;;;18.40;99.90;;;;;;5108341;28;20024;-59
2023/06/07 07:43:58;;;;;;;17.08;8.20;;;18.50;99.90;;;;;;5108856;28;20114;-61
2023/06/07 07:46:23;;;;;;;16.10;8.20;;;18.50;99.90;;;;;;5110254;28;20054;-61
2023/06/07 07:48:49;;;;;;;21.98;8.43;;;18.50;99.90;;;;;;5110421;28;20480;-60
2023/06/07 07:51:15;;;;;;;17.33;7.97;;;18.50;99.90;;;;;;5110253;28;20027;-60
2023/06/07 07:53:42;;;;;;;19.80;7.95;;;18.50;99.90;;;;;;5108865;28;20502;-60
2023/06/07 07:56:07;;;;;;;17.45;7.50;;;18.50;99.90;;;;;;5105700;28;20023;-60
2023/06/07 07:58:33;;;;;;;15.55;7.93;;;18.60;99.90;;;;;;5107968;28;20027;-59
2023/06/07 08:00:59;;;;;;;20.73;7.97;;;18.60;99.90;;;;;;5105407;28;20603;-57
2023/06/07 08:03:24;;;;;;;20.50;8.05;;;18.60;99.90;;;;;;5105942;28;20031;-60
2023/06/07 08:05:50;;;;;;;23.13;8.68;;;18.60;99.90;;;;;;5104949;28;21118;-61
2023/06/07 08:08:16;;;;;;;18.60;8.63;;;18.70;99.90;;;;;;5102814;28;20816;-58
2023/06/07 08:10:42;;;;;;;21.25;8.73;;;18.70;99.90;;;;;;5097392;28;20486;-61
2023/06/07 08:13:08;;;;;;;18.40;8.30;;;18.70;99.90;;;;;;5106723;28;20036;-59
2023/06/07 08:15:33;;;;;;;17.90;9.23;;;18.70;99.90;;;;;;5109648;28;20023;-59
2023/06/07 08:17:59;;;;;;;21.02;9.48;;;18.80;99.90;;;;;;5106915;28;20031;-58
2023/06/07 08:20:25;;;;;;;21.27;8.25;;;18.70;99.90;;;;;;5099650;28;20082;-61
2023/06/07 08:22:50;;;;;;;16.83;8.45;;;18.80;99.90;;;;;;5109124;28;20069;-56
2023/06/07 08:25:16;;;;;;;19.25;8.85;;;18.90;99.90;;;;;;5107389;28;20089;-57
2023/06/07 08:27:42;;;;;;;21.25;8.63;;;18.80;99.90;;;;;;5110075;28;20055;-59
2023/06/07 08:30:08;;;;;;;17.58;9.25;;;18.90;99.90;;;;;;5110088;28;20588;-58
2023/06/07 08:32:33;;;;;;;20.65;8.18;;;18.90;99.90;;;;;;5109053;28;20030;-59
2023/06/07 08:34:59;;;;;;;21.05;9.32;;;19.00;99.90;;;;;;5110219;28;20032;-60
2023/06/07 08:37:25;;;;;;;16.90;9.10;;;19.10;99.90;;;;;;5109512;28;20055;-60
2023/06/07 08:39:50;;;;;;;21.52;9.98;;;19.10;99.90;;;;;;5109728;28;20404;-58
2023/06/07 08:42:16;;;;;;;25.42;9.25;;;19.10;99.90;;;;;;5108344;28;20038;-60
2023/06/07 08:44:41;;;;;;;21.95;9.65;;;19.20;99.90;;;;;;5106374;28;20055;-59
2023/06/07 08:47:11;;;;;;;21.35;9.57;;;19.30;99.90;;;;;;5107482;28;20027;-60
2023/06/07 08:49:39;;;;;;;25.58;9.77;;;19.40;99.90;;;;;;5104503;28;20485;-59
2023/06/07 08:52:08;;;;;;;22.52;9.68;;;19.50;99.90;;;;;;5104367;28;20481;-59
2023/06/07 08:54:44;;;;;;;19.10;9.40;;;19.60;99.90;;;;;;5100163;28;20224;-60
2023/06/07 08:57:13;;;;;;;19.98;9.68;;;19.80;99.90;;;;;;5104264;28;20020;-57
2023/06/07 08:59:39;;;;;;;20.15;9.68;;;19.70;99.90;;;;;;5108057;28;20038;-61
2023/06/07 09:02:05;;;;;;;14.82;10.02;;;19.70;99.90;;;;;;5109527;28;20024;-61
2023/06/07 09:04:30;;;;;;;22.00;10.10;;;19.80;99.90;;;;;;5109711;28;20046;-57
2023/06/07 09:06:56;;;;;;;18.55;9.90;;;19.90;99.90;;;;;;5108374;28;20088;-57
2023/06/07 09:09:21;;;;;;;21.90;10.55;;;20.00;99.90;;;;;;5107424;28;20367;-59
2023/06/07 09:11:53;;;;;;;21.13;9.32;;;19.90;99.90;;;;;;5110328;28;20024;-57
2023/06/07 09:14:20;;;;;;;19.85;9.85;;;19.90;99.90;;;;;;5111244;28;20084;-56
2023/06/07 09:16:56;;;;;;;19.92;9.55;;;19.90;99.90;;;;;;5112444;28;20024;-60
2023/06/07 09:19:35;;;;;;;18.70;9.77;;;20.00;99.90;;;;;;5112101;28;20035;-59
2023/06/07 09:22:02;;;;;;;22.67;9.73;;;20.00;99.90;;;;;;5110433;28;20102;-59
2023/06/07 09:24:29;;;;;;;15.90;8.73;;;20.10;99.90;;;;;;5110288;28;20031;-60
2023/06/07 09:26:55;;;;;;;21.58;9.27;;;20.20;99.90;;;;;;5105234;28;20024;-58
2023/06/07 09:29:21;;;;;;;20.85;7.88;;;20.40;99.90;;;;;;5109278;28;20023;-58
2023/06/07 09:31:47;;;;;;;14.52;7.85;;;20.50;99.90;;;;;;5108625;28;20047;-57
2023/06/07 09:34:26;;;;;;;13.75;8.25;;;20.60;99.90;;;;;;5101868;28;20570;-61
2023/06/07 09:36:56;;;;;;;23.38;9.48;;;20.70;99.90;;;;;;5110539;28;20024;-61
2023/06/07 09:39:23;;;;;;;16.98;7.80;;;20.80;99.90;;;;;;5104708;27;20027;-59
2023/06/07 09:41:50;;;;;;;18.77;8.88;;;20.90;99.90;;;;;;5105812;28;20058;-58
2023/06/07 09:44:23;;;;;;;12.80;7.60;;;21.00;99.90;;;;;;5106909;28;20778;-59
2023/06/07 09:46:50;;;;;;;15.63;7.30;;;20.90;99.90;;;;;;5099687;28;20036;-60
2023/06/07 09:49:22;;;;;;;13.52;6.93;;;21.00;99.90;;;;;;5106689;28;20012;-61
2023/06/07 09:51:51;;;;;;;13.95;6.47;;;21.20;99.90;;;;;;5106612;28;20027;-59
2023/06/07 09:54:17;;;;;;;15.43;8.18;;;21.40;99.90;;;;;;5106748;28;20020;-56
2023/06/07 09:56:43;;;;;;;17.98;9.25;;;21.00;99.90;;;;;;5104546;28;20035;-60
2023/06/07 09:59:13;;;;;;;19.77;8.88;;;20.70;99.90;;;;;;5108189;28;20054;-58
2023/06/07 10:01:45;;;;;;;16.73;9.60;;;20.50;99.90;;;;;;5108734;28;20028;-59
2023/06/07 10:04:12;;;;;;;12.52;8.27;;;20.40;99.90;;;;;;5109573;28;20152;-59
2023/06/07 10:06:41;;;;;;;16.15;8.77;;;20.40;99.90;;;;;;5107629;28;20046;-59
2023/06/07 10:09:07;;;;;;;17.45;9.60;;;20.50;99.90;;;;;;5109546;28;20031;-60
2023/06/07 10:11:35;;;;;;;21.60;9.82;;;20.30;99.90;;;;;;5107051;28;20024;-58
2023/06/07 10:14:14;;;;;;;17.83;9.27;;;20.20;99.90;;;;;;5103837;28;20106;-55
2023/06/07 10:17:10;;;;;;;18.05;8.98;;;20.10;99.90;;;;;;5107779;28;20054;-54
2023/06/07 10:19:37;;;;;;;16.23;9.55;;;20.20;99.90;;;;;;5099895;28;20037;-59
2023/06/07 10:22:08;;;;;;;22.60;10.27;;;20.30;99.90;;;;;;5104799;28;20047;-57
2023/06/07 10:24:42;;;;;;;17.55;10.13;;;20.10;99.90;;;;;;5109651;28;20031;-59
2023/06/07 10:27:17;;;;;;;17.88;8.60;;;20.10;99.90;;;;;;5110468;28;20031;-59
2023/06/07 10:29:46;;;;;;;;;;;20.30;99.90;;;;;;5109961;28;20525;-57
2023/06/07 10:32:21;;;;;;;15.77;8.77;;;20.60;99.90;;;;;;5104939;28;19918;-60
2023/06/07 10:34:48;;;;;;;15.52;9.77;;;20.50;99.90;;;;;;5105646;28;20059;-58
2023/06/07 10:37:17;;;;;;;17.85;9.82;;;20.40;99.90;;;;;;5106756;28;20077;-59
2023/06/07 10:39:44;;;;;;;23.48;9.95;;;20.20;99.90;;;;;;5110814;27;20520;-60
2023/06/07 10:42:11;;;;;;;17.80;10.48;;;19.90;99.90;;;;;;5109370;28;20034;-58
2023/06/07 10:44:37;;;;;;;17.17;9.73;;;19.80;99.90;;;;;;5108865;28;20059;-59
2023/06/07 10:47:20;;;;;;;18.02;9.15;;;19.80;99.90;;;;;;5107700;28;20019;-61
2023/06/07 10:49:46;;;;;;;22.77;10.43;;;19.80;99.90;;;;;;5105368;28;20371;-58
2023/06/07 10:52:14;;;;;;;19.25;11.25;;;19.80;99.90;;;;;;5104382;28;20105;-59
2023/06/07 10:54:41;;;;;;;17.95;10.95;;;19.70;99.90;;;;;;5103686;28;20073;-59
2023/06/07 10:57:07;;;;;;;20.08;10.77;;;19.80;99.90;;;;;;5099891;28;20049;-60
2023/06/07 10:59:33;;;;;;;20.52;10.70;;;19.80;99.90;;;;;;5103559;28;20019;-59
2023/06/07 11:02:18;;;;;;;17.48;10.93;;;19.80;99.90;;;;;;5102042;28;20441;-59
2023/06/07 11:04:51;;;;;;;23.05;12.25;;;19.40;99.90;;;;;;5100261;28;20123;-57
2023/06/07 11:07:22;;;;;;;19.42;11.25;;;19.30;99.90;;;;;;5099546;28;20020;-59
2023/06/07 11:10:08;;;;;;;28.73;13.43;;;19.30;99.90;;;;;;5101342;28;20027;-59
2023/06/07 11:12:44;;;;;;;19.80;12.30;;;19.30;99.90;;;;;;5089058;28;20166;-58
2023/06/07 11:15:24;;;;;;;26.73;12.77;;;19.20;99.90;;;;;;5099449;28;20031;-59
2023/06/07 11:18:08;;;;;;;25.48;12.85;;;19.20;99.90;;;;;;5096677;28;20028;-59
2023/06/07 11:23:33;;;;;;;22.40;12.88;;;19.10;99.90;;;;;;5106575;28;20073;-58
2023/06/07 11:26:06;;;;;;;25.45;13.52;;;19.40;99.90;;;;;;5090832;28;20109;-61
2023/06/07 11:28:34;;;;;;;23.50;13.55;;;19.50;99.90;;;;;;5108049;28;20051;-56
2023/06/07 11:31:01;;;;;;;24.83;12.75;;;19.60;99.90;;;;;;5106676;28;20039;-57
2023/06/07 11:33:27;;;;;;;25.83;14.93;;;19.70;99.90;;;;;;5100866;28;20406;-60
2023/06/07 11:35:55;;;;;;;32.83;16.45;;;19.60;99.90;;;;;;5096653;28;20084;-59
2023/06/07 11:38:21;;;;;;;29.02;15.57;;;19.50;99.90;;;;;;5103147;28;20755;-60
2023/06/07 11:40:48;;;;;;;27.00;16.70;;;19.50;99.90;;;;;;5105590;28;20031;-60
2023/06/07 11:43:18;;;;;;;31.65;15.05;;;19.50;99.90;;;;;;5103279;28;20035;-61
2023/06/07 11:45:44;;;;;;;25.42;15.30;;;19.60;99.90;;;;;;5099095;28;20036;-59
2023/06/07 11:48:10;;;;;;;36.78;16.52;;;19.70;99.90;;;;;;5101508;28;20049;-60
2023/06/07 11:50:40;;;;;;;26.77;17.05;;;19.70;99.90;;;;;;5103858;28;20031;-59
2023/06/07 11:53:10;;;;;;;29.58;17.13;;;19.60;99.90;;;;;;5100873;28;20516;-58
2023/06/07 11:55:37;;;;;;;25.73;17.02;;;19.60;99.90;;;;;;5103730;28;20031;-57
2023/06/07 11:58:03;;;;;;;31.83;19.52;;;19.70;99.90;;;;;;5100540;28;20143;-59
2023/06/07 12:00:33;;;;;;;33.30;18.70;;;19.80;99.90;;;;;;5108246;28;20025;-57
2023/06/07 12:03:00;;;;;;;31.80;18.77;;;19.90;99.90;;;;;;5102717;28;20078;-55
2023/06/07 12:05:34;;;;;;;38.58;20.55;;;20.10;99.90;;;;;;5105563;28;20016;-58
2023/06/07 12:08:04;;;;;;;26.27;18.23;;;20.30;99.90;;;;;;5108176;28;20128;-60
2023/06/07 12:10:36;;;;;;;28.63;19.38;;;20.30;99.90;;;;;;5106830;28;20023;-58
2023/06/07 12:13:16;;;;;;;35.17;19.38;;;20.40;99.90;;;;;;5105040;28;20043;-60
2023/06/07 12:15:42;;;;;;;34.47;20.35;;;20.70;99.90;;;;;;5106674;28;20509;-59
2023/06/07 12:18:16;;;;;;;28.15;17.95;;;20.80;99.90;;;;;;5105482;28;20031;-57
2023/06/07 12:20:42;;;;;;;31.00;18.23;;;20.80;99.90;;;;;;5107087;28;20031;-55
2023/06/07 12:23:10;;;;;;;33.38;20.38;;;20.80;99.90;;;;;;5099819;28;20110;-58
2023/06/07 12:25:36;;;;;;;32.58;19.70;;;20.60;99.90;;;;;;5097013;28;20084;-56
2023/06/07 12:28:08;;;;;;;33.83;20.02;;;20.50;99.90;;;;;;5104320;28;20023;-58
2023/06/07 12:30:37;;;;;;;32.65;19.77;;;20.40;99.90;;;;;;5100228;28;20031;-59
2023/06/07 12:33:03;;;;;;;33.55;20.35;;;20.30;99.90;;;;;;5105449;28;20072;-60
2023/06/07 12:35:38;;;;;;;33.33;20.13;;;20.40;99.90;;;;;;5105022;28;20446;-57
2023/06/07 12:38:05;;;;;;;35.47;20.20;;;20.30;99.90;;;;;;5101668;28;20157;-58
2023/06/07 12:40:31;;;;;;;34.05;21.00;;;20.30;99.90;;;;;;5108633;28;20067;-55
2023/06/07 12:42:57;;;;;;;44.70;24.92;;;20.30;99.90;;;;;;5109532;28;20476;-58